Eau Claire, WI

5:34 AM CST on March 04, 2015 (GMT -0600)
Memorial High area | Change Station
CLOSE
Current Station
Personal Weather Station
Location: Eau Claire, WI
Elevation: 880 ft
Nearby Weather Stations

Elev 880 ft 44.80 °N, 91.48 °W | Updated 4 seconds ago

Clear
Clear
1.8 °F
Feels Like 2 °F
N
0.0
Wind Variable Wind from West
Gusts 7.6 mph

Today
High -- | Low -- °F
--% Chance of Precip.
Yesterday
High -- | Low -- °F
Precip. -- in
6:38 AM 5:57 PM
Waxing Gibbous, 99% visible
Pressure 30.11 in
Visibility 10.0 miles
Clouds Clear
Windchill 2 °F
Dew Point -5 °F
Humidity 72%
Rainfall 0.00 in
Snow Depth Not available.
UV 0 out of 12
Pollen .40 out of 12
Air Quality Not available.
Flu Activity Not available.
METAR KEAU 041056Z AUTO 29010KT 10SM CLR M17/M22 A3005 RMK AO2 SLP194 T11721222

More Conditions Fewer Conditions

Pressure 30.11 in
Visibility 10.0 miles
Clouds Clear
Windchill 2 °F
Dew Point -5 °F
Humidity 72%
Rainfall 0.00 in
Snow Depth Not available.
UV 0 out of 12
Pollen .40 out of 12
Air Quality Not available.
Flu Activity Not available.
METAR KEAU 041056Z AUTO 29010KT 10SM CLR M17/M22 A3005 RMK AO2 SLP194 T11721222

More Conditions Fewer Conditions

10-Day Weather Forecast

Almanac

Astronomy

Mar. 04, 2015 Rise Set
Actual Time
Civil Twilight
Nautical Twilight
Astronomical Twilight
Moon
Length of Visible Light
Length of Day
Tomorrow will be .
, % of the Moon is Illuminated

Today's Extremes

State Highs State Lows

Community

WunderPhotos

Upload Photos

1,802,435 photos uploaded!

WunderBlogs® & News

Nearby

Air Quality

  Air Quality AQ Index Pollutant
Not available.

Snow Depth

Station Depth Elevation

Earthquake Activity

City Distance Mag. Time & Date
Minimum magnitude displayed is 2.5.

Coastal Water Temperatures

Place Temperature

Nearby Weather Stations